createdAt,value
2023-02-16T00:01:49.329Z,13.88
2023-02-16T00:06:44.593Z,15.77
2023-02-16T00:09:11.091Z,14.75
2023-02-16T00:11:56.210Z,14.85
2023-02-16T00:14:26.289Z,15.80
2023-02-16T00:16:54.955Z,14.05
2023-02-16T00:19:35.057Z,15.43
2023-02-16T00:22:02.498Z,16.40
2023-02-16T00:24:30.511Z,16.00
2023-02-16T00:26:58.065Z,16.65
2023-02-16T00:29:30.674Z,15.57
2023-02-16T00:31:58.878Z,15.13
2023-02-16T00:34:41.482Z,16.52
2023-02-16T00:37:10.655Z,16.73
2023-02-16T00:39:38.707Z,16.70
2023-02-16T00:42:12.071Z,15.10
2023-02-16T00:44:44.259Z,15.80
2023-02-16T00:47:32.320Z,15.75
2023-02-16T00:49:59.131Z,17.48
2023-02-16T00:55:09.310Z,14.23
2023-02-16T00:57:41.477Z,14.48
2023-02-16T01:00:10.859Z,14.85
2023-02-16T01:02:37.291Z,15.10
2023-02-16T01:05:04.479Z,13.55
2023-02-16T01:07:49.770Z,15.05
2023-02-16T01:10:37.334Z,15.05
2023-02-16T01:13:04.412Z,14.35
2023-02-16T01:15:30.988Z,14.98
2023-02-16T01:17:57.612Z,15.52
2023-02-16T01:20:26.108Z,16.10
2023-02-16T01:22:52.549Z,16.88
2023-02-16T01:25:19.141Z,16.05
2023-02-16T01:27:46.437Z,15.88
2023-02-16T01:30:16.351Z,19.27
2023-02-16T01:32:42.900Z,16.20
2023-02-16T01:35:10.396Z,17.77
2023-02-16T01:37:36.912Z,16.08
2023-02-16T01:40:04.101Z,15.38
2023-02-16T01:42:41.361Z,14.50
2023-02-16T01:45:19.877Z,18.13
2023-02-16T01:48:01.766Z,15.98
2023-02-16T01:50:41.850Z,15.73
2023-02-16T01:53:37.426Z,17.60
2023-02-16T01:56:06.991Z,15.23
2023-02-16T01:58:44.478Z,18.70
2023-02-16T02:01:39.542Z,19.02
2023-02-16T02:04:44.239Z,17.45
2023-02-16T02:07:17.918Z,17.13
2023-02-16T02:09:55.727Z,19.83
2023-02-16T02:12:32.851Z,17.40
2023-02-16T02:14:59.379Z,17.83
2023-02-16T02:17:27.679Z,18.15
2023-02-16T02:19:59.844Z,18.92
2023-02-16T02:22:57.029Z,17.13
2023-02-16T02:26:11.844Z,19.23
2023-02-16T02:29:02.582Z,19.63
2023-02-16T02:32:04.703Z,18.08
2023-02-16T02:35:08.911Z,19.35
2023-02-16T02:37:56.257Z,19.90
2023-02-16T02:40:28.772Z,18.05
2023-02-16T02:43:17.737Z,18.83
2023-02-16T02:45:49.674Z,20.52
2023-02-16T02:48:16.249Z,17.10
2023-02-16T02:51:23.466Z,18.52
2023-02-16T02:54:15.231Z,17.23
2023-02-16T02:57:06.666Z,17.50
2023-02-16T02:59:56.504Z,18.35
2023-02-16T03:02:25.181Z,16.90
2023-02-16T03:04:54.017Z,18.25
2023-02-16T03:07:43.360Z,19.50
2023-02-16T03:10:28.738Z,17.98
2023-02-16T03:12:57.827Z,18.75
2023-02-16T03:15:26.199Z,18.05
2023-02-16T03:18:13.932Z,17.83
2023-02-16T03:21:02.099Z,20.08
2023-02-16T03:23:48.165Z,19.52
2023-02-16T03:26:34.346Z,19.70
2023-02-16T03:29:21.647Z,20.95
2023-02-16T03:31:49.834Z,20.85
2023-02-16T03:34:37.362Z,20.55
2023-02-16T03:37:05.283Z,18.13
2023-02-16T03:39:32.727Z,18.83
2023-02-16T03:41:59.283Z,18.60
2023-02-16T03:44:25.808Z,18.20
2023-02-16T03:46:52.391Z,17.23
2023-02-16T03:49:19.787Z,18.80
2023-02-16T03:51:47.030Z,21.50
2023-02-16T03:54:13.629Z,19.13
2023-02-16T03:56:40.201Z,17.20
2023-02-16T03:59:06.710Z,20.42
2023-02-16T04:01:33.269Z,20.45
2023-02-16T04:03:59.772Z,19.20
2023-02-16T04:06:26.468Z,18.67
2023-02-16T04:08:53.065Z,19.52
2023-02-16T04:11:38.273Z,17.58
2023-02-16T04:14:04.741Z,18.58
2023-02-16T04:16:31.234Z,17.58
2023-02-16T04:18:57.709Z,17.02
2023-02-16T04:21:24.187Z,18.23
2023-02-16T04:23:50.662Z,17.38
2023-02-16T04:26:17.121Z,16.02
2023-02-16T04:28:43.720Z,16.50
2023-02-16T04:31:10.237Z,17.73
2023-02-16T04:33:36.791Z,18.13
2023-02-16T04:36:03.348Z,18.10
2023-02-16T04:38:29.772Z,17.67
2023-02-16T04:40:56.254Z,18.58
2023-02-16T04:43:22.790Z,18.45
2023-02-16T04:45:49.291Z,17.80
2023-02-16T04:48:15.774Z,17.17
2023-02-16T04:50:42.225Z,17.80
2023-02-16T04:53:08.690Z,17.58
2023-02-16T04:55:35.157Z,17.38
2023-02-16T04:58:01.665Z,19.35
2023-02-16T05:00:28.897Z,17.73
2023-02-16T05:02:55.353Z,16.67
2023-02-16T05:05:21.850Z,19.15
2023-02-16T05:07:48.342Z,16.02
2023-02-16T05:10:14.809Z,15.10
2023-02-16T05:13:00.118Z,10.75
2023-02-16T05:15:26.547Z,10.25
2023-02-16T05:17:53.062Z,13.52
2023-02-16T05:20:19.544Z,12.75
2023-02-16T05:22:46.495Z,13.63
2023-02-16T05:25:13.414Z,17.63
2023-02-16T05:27:39.917Z,17.33
2023-02-16T05:30:07.004Z,15.77
2023-02-16T05:32:33.499Z,17.67
2023-02-16T05:35:00.156Z,18.65
2023-02-16T05:37:26.595Z,19.60
2023-02-16T05:39:53.289Z,17.45
2023-02-16T05:42:19.767Z,18.52
2023-02-16T05:44:46.194Z,16.85
2023-02-16T05:47:12.750Z,17.30
2023-02-16T05:49:39.277Z,15.95
2023-02-16T05:52:05.860Z,19.25
2023-02-16T05:54:32.387Z,16.50
2023-02-16T05:56:58.865Z,16.83
2023-02-16T05:59:25.412Z,18.17
2023-02-16T06:01:52.688Z,18.20
2023-02-16T06:04:20.534Z,17.77
2023-02-16T06:06:47.596Z,18.30
2023-02-16T06:09:14.243Z,19.02
2023-02-16T06:11:40.744Z,20.35
2023-02-16T06:14:13.502Z,21.95
2023-02-16T06:16:42.207Z,18.80
2023-02-16T06:19:09.376Z,17.77
2023-02-16T06:21:36.912Z,18.35
2023-02-16T06:24:04.043Z,11.85
2023-02-16T06:26:30.703Z,17.02
2023-02-16T06:28:57.356Z,19.00
2023-02-16T06:31:25.464Z,18.13
2023-02-16T06:33:53.026Z,19.50
2023-02-16T06:36:20.148Z,17.98
2023-02-16T06:38:47.006Z,19.35
2023-02-16T06:43:40.076Z,15.60
2023-02-16T06:46:06.709Z,18.20
2023-02-16T06:48:33.333Z,17.30
2023-02-16T06:50:59.831Z,17.77
2023-02-16T06:53:26.367Z,17.70
2023-02-16T06:55:52.905Z,18.90
2023-02-16T06:58:19.449Z,19.38
2023-02-16T07:00:45.970Z,17.88
2023-02-16T07:03:12.656Z,16.65
2023-02-16T07:05:39.203Z,20.35
2023-02-16T07:08:05.702Z,19.00
2023-02-16T07:10:47.511Z,17.67
2023-02-16T07:13:15.905Z,20.35
2023-02-16T07:15:42.354Z,18.65
2023-02-16T07:18:08.837Z,21.10
2023-02-16T07:20:35.312Z,17.83
2023-02-16T07:23:01.802Z,17.80
2023-02-16T07:25:28.716Z,30.65
2023-02-16T07:27:55.390Z,19.75
2023-02-16T07:30:22.325Z,22.67
2023-02-16T07:32:48.843Z,19.02
2023-02-16T07:35:15.265Z,18.60
2023-02-16T07:37:41.773Z,18.90
2023-02-16T07:40:08.868Z,19.13
2023-02-16T07:42:35.360Z,20.73
2023-02-16T07:45:01.844Z,19.08
2023-02-16T07:47:28.299Z,19.52
2023-02-16T07:49:54.866Z,19.05
2023-02-16T07:52:21.354Z,19.08
2023-02-16T07:54:47.899Z,19.95
2023-02-16T07:57:14.369Z,19.38
2023-02-16T07:59:40.942Z,19.13
2023-02-16T08:02:07.573Z,19.38
2023-02-16T08:04:34.525Z,21.20
2023-02-16T08:07:01.261Z,17.42
2023-02-16T08:09:27.709Z,18.70
2023-02-16T08:11:54.285Z,20.20
2023-02-16T08:14:20.763Z,20.63
2023-02-16T08:16:48.516Z,21.30
2023-02-16T08:19:16.775Z,21.33
2023-02-16T08:21:47.375Z,19.63
2023-02-16T08:24:13.866Z,21.00
2023-02-16T08:26:43.171Z,20.98
2023-02-16T08:29:10.229Z,21.20
2023-02-16T08:31:38.426Z,20.55
2023-02-16T08:34:05.823Z,19.02
2023-02-16T08:36:34.866Z,19.00
2023-02-16T08:39:04.241Z,21.40
2023-02-16T08:41:33.633Z,18.90
2023-02-16T08:44:00.919Z,20.50
2023-02-16T08:46:29.297Z,18.38
2023-02-16T08:49:00.417Z,19.17
2023-02-16T08:51:29.196Z,18.48
2023-02-16T08:54:00.276Z,17.45
2023-02-16T08:56:29.742Z,19.08
2023-02-16T08:58:57.204Z,18.10
2023-02-16T09:01:23.912Z,17.83
2023-02-16T09:06:21.434Z,17.90
2023-02-16T09:08:57.482Z,18.30
2023-02-16T09:11:25.597Z,19.02
2023-02-16T09:13:52.078Z,20.02
2023-02-16T09:16:22.503Z,19.23
2023-02-16T09:18:49.397Z,19.42
2023-02-16T09:23:48.214Z,19.10
2023-02-16T09:26:19.363Z,18.98
2023-02-16T09:28:47.277Z,19.85
2023-02-16T09:31:23.739Z,20.40
2023-02-16T09:33:50.250Z,17.80
2023-02-16T09:36:17.359Z,21.67
2023-02-16T09:41:27.905Z,19.73
2023-02-16T09:44:29.755Z,18.23
2023-02-16T09:46:58.838Z,18.85
2023-02-16T09:49:37.915Z,17.70
2023-02-16T09:52:19.801Z,19.55
2023-02-16T09:54:51.534Z,16.38
2023-02-16T09:57:49.166Z,16.65
2023-02-16T10:00:51.297Z,17.80
2023-02-16T10:03:41.433Z,16.90
2023-02-16T18:39:29.445Z,10.20
2023-02-16T18:41:55.981Z,15.63
2023-02-16T18:44:22.510Z,14.60
2023-02-16T18:46:49.074Z,14.90
2023-02-16T18:49:15.594Z,14.30
2023-02-16T18:51:42.140Z,15.15
2023-02-16T18:54:08.677Z,14.73
2023-02-16T18:56:37.345Z,15.70
2023-02-16T18:59:04.403Z,15.55
2023-02-16T19:01:32.722Z,16.83
2023-02-16T19:04:00.860Z,15.43
2023-02-16T19:06:27.994Z,14.98
2023-02-16T19:08:54.691Z,16.05
2023-02-16T19:13:48.600Z,15.68
2023-02-16T19:16:16.432Z,15.10
2023-02-16T19:18:43.227Z,16.70
2023-02-16T19:23:37.833Z,15.43
2023-02-16T19:26:12.845Z,15.82
2023-02-16T19:28:39.988Z,17.85
2023-02-16T19:31:09.358Z,18.00
2023-02-16T19:33:35.956Z,18.48
2023-02-16T19:36:08.624Z,17.17
2023-02-16T19:38:35.926Z,17.30
2023-02-16T19:41:10.800Z,16.20
2023-02-16T19:43:37.429Z,16.20
2023-02-16T19:46:05.682Z,17.25
2023-02-16T19:48:32.455Z,17.02
2023-02-16T19:51:00.965Z,14.85
2023-02-16T19:53:28.271Z,15.30
2023-02-16T19:55:54.856Z,15.88
2023-02-16T19:58:22.710Z,16.10
2023-02-16T20:00:49.507Z,17.63
2023-02-16T20:05:43.218Z,14.85
2023-02-16T20:08:10.296Z,16.58
2023-02-16T20:10:43.953Z,18.58
2023-02-16T20:13:11.263Z,16.95
2023-02-16T20:15:37.803Z,16.75
2023-02-16T20:18:06.005Z,18.27
2023-02-16T20:20:32.576Z,17.90
2023-02-16T20:22:59.072Z,17.08
2023-02-16T20:25:25.795Z,17.90
2023-02-16T20:27:52.564Z,17.75
2023-02-16T20:32:48.457Z,15.18
2023-02-16T20:35:15.292Z,17.92
2023-02-16T20:37:41.899Z,18.33
2023-02-16T20:40:08.885Z,20.25
2023-02-16T20:42:35.645Z,19.65
2023-02-16T20:47:30.071Z,16.50
2023-02-16T20:49:56.590Z,19.63
2023-02-16T20:52:23.178Z,19.63
2023-02-16T20:54:49.683Z,18.73
2023-02-16T20:57:26.429Z,21.30
2023-02-16T20:59:54.423Z,17.55
2023-02-16T21:02:20.991Z,22.25
2023-02-16T21:04:47.544Z,20.77
2023-02-16T21:07:14.136Z,21.70
2023-02-16T21:09:40.635Z,17.80
2023-02-16T21:12:07.178Z,19.05
2023-02-16T21:14:33.763Z,21.27
2023-02-16T21:17:00.698Z,18.98
2023-02-16T21:19:27.198Z,18.35
2023-02-16T21:21:53.728Z,18.92
2023-02-16T21:24:20.787Z,17.13
2023-02-16T21:26:47.427Z,19.60
2023-02-16T21:29:17.041Z,17.48
2023-02-16T21:31:43.716Z,17.83
2023-02-16T21:36:37.732Z,17.25
2023-02-16T21:39:05.198Z,17.55
2023-02-16T21:41:31.723Z,18.60
2023-02-16T21:44:10.142Z,19.35
2023-02-16T21:46:42.247Z,18.35
2023-02-16T21:49:12.795Z,17.38
2023-02-16T21:51:41.007Z,17.50
2023-02-16T21:54:14.424Z,19.08
2023-02-16T21:56:50.235Z,18.48
2023-02-16T21:59:19.034Z,16.35
2023-02-16T22:01:48.079Z,18.63
2023-02-16T22:04:18.731Z,17.85
2023-02-16T22:06:47.402Z,16.98
2023-02-16T22:09:19.066Z,17.23
2023-02-16T22:11:46.587Z,16.90
2023-02-16T22:14:13.905Z,16.80
2023-02-16T22:16:40.941Z,17.10
2023-02-16T22:19:16.349Z,16.15
2023-02-16T22:21:44.993Z,16.98
2023-02-16T22:24:14.008Z,16.38
2023-02-16T22:26:40.854Z,15.43
2023-02-16T22:29:08.787Z,16.00
2023-02-16T22:31:36.155Z,16.70
2023-02-16T22:34:06.325Z,15.50
2023-02-16T22:36:33.410Z,15.52
2023-02-16T22:39:00.114Z,15.95
2023-02-16T22:43:55.796Z,14.20
2023-02-16T22:46:23.910Z,15.10
2023-02-16T22:48:51.020Z,15.88
2023-02-16T22:51:19.470Z,13.90
2023-02-16T22:53:46.420Z,16.88
2023-02-16T22:56:15.908Z,15.50
2023-02-16T22:58:42.732Z,16.20
2023-02-16T23:01:17.151Z,15.27
2023-02-16T23:03:49.826Z,15.02
2023-02-16T23:06:22.814Z,16.08
2023-02-16T23:08:59.045Z,17.95
2023-02-16T23:11:26.995Z,14.95
2023-02-16T23:13:53.875Z,15.93
2023-02-16T23:16:23.261Z,15.73
2023-02-16T23:18:50.718Z,15.07
2023-02-16T23:21:24.665Z,16.27
2023-02-16T23:23:52.381Z,16.48
2023-02-16T23:26:21.076Z,15.52
2023-02-16T23:28:51.659Z,16.25
2023-02-16T23:31:18.579Z,16.08
2023-02-16T23:33:45.099Z,15.88
2023-02-16T23:36:11.765Z,15.90
2023-02-16T23:38:38.301Z,15.13
2023-02-16T23:41:09.019Z,15.85
2023-02-16T23:43:35.790Z,13.93
2023-02-16T23:48:31.306Z,14.30
2023-02-16T23:50:58.361Z,14.88
2023-02-16T23:53:27.105Z,14.73
2023-02-16T23:56:14.514Z,15.43
2023-02-16T23:58:42.772Z,13.95
